createdAt,value
2023-05-20T00:01:07.034Z,11.09
2023-05-20T00:06:14.568Z,11.04
2023-05-20T00:11:21.935Z,10.73
2023-05-20T00:16:29.302Z,11.23
2023-05-20T00:21:36.663Z,10.20
2023-05-20T00:26:44.119Z,10.95
2023-05-20T00:31:51.428Z,10.15
2023-05-20T00:36:58.712Z,11.11
2023-05-20T00:42:05.924Z,10.04
2023-05-20T00:47:13.225Z,10.02
2023-05-20T00:52:20.524Z,10.27
2023-05-20T00:57:28.011Z,9.81
2023-05-20T01:02:35.399Z,10.87
2023-05-20T01:07:42.820Z,10.95
2023-05-20T01:12:50.120Z,11.15
2023-05-20T01:17:57.586Z,11.06
2023-05-20T01:23:04.866Z,10.58
2023-05-20T01:28:12.367Z,10.48
2023-05-20T01:33:19.542Z,10.43
2023-05-20T01:38:27.036Z,10.75
2023-05-20T01:43:34.238Z,11.85
2023-05-20T01:48:41.705Z,10.63
2023-05-20T01:53:49.089Z,11.56
2023-05-20T01:58:56.463Z,11.80
2023-05-20T02:04:03.840Z,11.03
2023-05-20T02:09:11.196Z,11.49
2023-05-20T02:14:18.534Z,10.91
2023-05-20T02:19:26.109Z,10.79
2023-05-20T02:24:33.308Z,10.36
2023-05-20T02:29:40.803Z,10.83
2023-05-20T02:34:48.121Z,10.65
2023-05-20T02:39:55.710Z,10.86
2023-05-20T02:45:03.066Z,10.88
2023-05-20T02:50:10.418Z,10.93
2023-05-20T02:55:17.654Z,11.30
2023-05-20T03:00:25.095Z,11.23
2023-05-20T03:05:32.506Z,11.66
2023-05-20T03:10:39.219Z,11.16
2023-05-20T03:15:46.479Z,12.08
2023-05-20T03:20:53.905Z,11.94
2023-05-20T03:26:01.235Z,12.28
2023-05-20T03:31:08.681Z,10.92
2023-05-20T03:36:16.003Z,11.20
2023-05-20T03:41:23.549Z,12.23
2023-05-20T03:46:30.834Z,11.92
2023-05-20T03:51:38.260Z,11.38
2023-05-20T03:56:45.482Z,11.65
2023-05-20T04:01:52.985Z,11.68
2023-05-20T04:07:00.211Z,9.64
2023-05-20T04:12:07.658Z,8.86
2023-05-20T04:17:14.945Z,10.93
2023-05-20T04:22:22.356Z,11.18
2023-05-20T04:27:29.574Z,10.70
2023-05-20T04:32:37.098Z,10.66
2023-05-20T04:37:44.391Z,11.93
2023-05-20T04:42:51.713Z,12.73
2023-05-20T04:47:58.932Z,10.85
2023-05-20T04:53:06.272Z,12.44
2023-05-20T04:58:13.482Z,12.92
2023-05-20T05:03:20.901Z,13.14
2023-05-20T05:08:28.390Z,12.34
2023-05-20T05:13:35.846Z,11.93
2023-05-20T05:18:43.085Z,12.39
2023-05-20T05:23:50.532Z,11.83
2023-05-20T05:28:57.841Z,12.97
2023-05-20T05:34:05.268Z,10.61
2023-05-20T05:39:12.555Z,12.64
2023-05-20T05:44:19.933Z,11.26
2023-05-20T05:49:27.344Z,10.97
2023-05-20T05:54:34.754Z,10.58
2023-05-20T05:59:42.103Z,10.50
2023-05-20T06:04:49.630Z,10.41
2023-05-20T06:09:56.980Z,11.01
2023-05-20T06:15:04.436Z,9.05
2023-05-20T06:20:11.767Z,10.36
2023-05-20T06:25:19.228Z,10.07
2023-05-20T06:30:26.445Z,9.87
2023-05-20T06:35:34.106Z,9.88
2023-05-20T06:40:41.156Z,9.56
2023-05-20T06:45:48.527Z,9.69
2023-05-20T06:50:55.884Z,8.89
2023-05-20T06:56:03.381Z,9.49
2023-05-20T07:01:10.737Z,8.43
2023-05-20T07:06:18.146Z,8.65
2023-05-20T07:11:25.544Z,8.84
2023-05-20T07:16:33.091Z,8.66
2023-05-20T07:21:40.240Z,8.98
2023-05-20T07:26:47.661Z,8.73
2023-05-20T07:31:54.882Z,7.95
2023-05-20T07:37:02.272Z,8.21
2023-05-20T07:42:09.971Z,8.41
2023-05-20T07:47:17.421Z,8.16
2023-05-20T07:52:24.654Z,8.66
2023-05-20T07:57:32.074Z,8.58
2023-05-20T08:02:39.636Z,7.83
2023-05-20T08:07:46.759Z,7.78
2023-05-20T08:12:54.077Z,8.02
2023-05-20T08:18:01.656Z,7.69
2023-05-20T08:23:08.761Z,7.26
2023-05-20T08:28:16.151Z,7.37
2023-05-20T08:33:23.386Z,7.80
2023-05-20T08:38:30.798Z,7.26
2023-05-20T08:43:38.124Z,7.50
2023-05-20T08:48:45.556Z,6.83
2023-05-20T08:53:52.847Z,7.30
2023-05-20T08:59:00.281Z,7.37
2023-05-20T09:04:07.526Z,6.59
2023-05-20T09:09:14.965Z,6.15
2023-05-20T09:14:22.288Z,7.92
2023-05-20T09:19:29.674Z,7.45
2023-05-20T09:24:37.012Z,6.82
2023-05-20T09:29:44.355Z,6.39
2023-05-20T09:34:51.596Z,5.79
2023-05-20T09:39:59.081Z,6.30
2023-05-20T09:45:06.422Z,7.12
2023-05-20T09:50:13.836Z,6.04
2023-05-20T09:55:21.054Z,5.72
2023-05-20T10:00:28.411Z,6.28
2023-05-20T10:05:35.837Z,5.50
2023-05-20T10:10:43.200Z,6.18
2023-05-20T10:15:50.597Z,5.87
2023-05-20T10:20:58.078Z,5.51
2023-05-20T10:26:05.522Z,5.24
2023-05-20T10:31:13.077Z,5.36
2023-05-20T10:36:20.323Z,5.53
2023-05-20T10:41:27.830Z,5.05
2023-05-20T10:46:48.209Z,4.53
2023-05-20T10:51:42.205Z,4.52
2023-05-20T10:56:49.545Z,4.10
2023-05-20T11:01:56.972Z,4.19
2023-05-20T11:07:04.212Z,3.88
2023-05-20T11:12:11.631Z,5.05
2023-05-20T11:17:18.905Z,5.20
2023-05-20T11:22:26.385Z,4.66
2023-05-20T11:27:33.826Z,4.78
2023-05-20T11:32:41.269Z,4.53
2023-05-20T11:37:48.589Z,4.70
2023-05-20T11:42:56.082Z,4.61
2023-05-20T11:48:03.409Z,4.27
2023-05-20T11:53:10.832Z,3.98
2023-05-20T11:58:18.157Z,4.00
2023-05-20T12:03:25.881Z,3.83
2023-05-20T12:08:33.107Z,3.98
2023-05-20T12:13:40.609Z,3.77
2023-05-20T12:18:48.000Z,3.93
2023-05-20T12:23:55.303Z,3.31
2023-05-20T12:29:02.655Z,3.82
2023-05-20T12:34:10.117Z,4.18
2023-05-20T12:39:17.464Z,4.04
2023-05-20T12:44:24.956Z,3.69
2023-05-20T12:49:32.263Z,3.80
2023-05-20T12:54:39.813Z,3.67
2023-05-20T12:59:47.075Z,3.70
2023-05-20T13:04:54.576Z,3.61
2023-05-20T13:10:01.865Z,3.76
2023-05-20T13:15:09.297Z,3.83
2023-05-20T13:20:19.085Z,3.98
2023-05-20T13:25:23.640Z,3.66
2023-05-20T13:30:30.942Z,3.68
2023-05-20T13:35:43.340Z,3.78
2023-05-20T13:40:40.572Z,3.60
2023-05-20T13:45:48.109Z,3.89
2023-05-20T13:50:55.359Z,3.41
2023-05-20T13:56:02.770Z,3.35
2023-05-20T14:01:10.000Z,3.41
2023-05-20T14:06:17.374Z,3.11
2023-05-20T14:11:24.617Z,3.32
2023-05-20T14:16:32.065Z,3.55
2023-05-20T14:21:39.276Z,3.06
2023-05-20T14:26:46.809Z,3.14
2023-05-20T14:31:54.052Z,3.08
2023-05-20T14:37:01.416Z,3.10
2023-05-20T14:42:08.674Z,3.14
2023-05-20T14:47:16.054Z,2.99
2023-05-20T14:52:23.353Z,2.96
2023-05-20T14:57:30.735Z,2.77
2023-05-20T15:02:38.257Z,2.46
2023-05-20T15:07:46.867Z,2.29
2023-05-20T15:12:52.530Z,2.45
2023-05-20T15:18:00.151Z,2.28
2023-05-20T15:23:07.415Z,3.35
2023-05-20T15:28:14.872Z,2.09
2023-05-20T15:33:22.124Z,2.19
2023-05-20T15:38:29.416Z,1.88
2023-05-20T15:43:36.691Z,2.24
2023-05-20T15:48:44.034Z,2.02
2023-05-20T15:53:51.265Z,2.19
2023-05-20T15:58:59.195Z,2.09
2023-05-20T16:04:06.545Z,1.86
2023-05-20T16:09:13.830Z,1.89
2023-05-20T16:14:21.041Z,1.89
2023-05-20T16:19:31.246Z,1.91
2023-05-20T16:24:28.370Z,2.04
2023-05-20T16:29:35.710Z,1.87
2023-05-20T16:34:42.949Z,1.90
2023-05-20T16:39:50.467Z,2.23
2023-05-20T16:44:57.699Z,2.17
2023-05-20T16:50:05.127Z,3.54
2023-05-20T16:55:12.504Z,1.89
2023-05-20T17:00:19.968Z,2.19
2023-05-20T17:05:27.328Z,2.12
2023-05-20T17:10:35.095Z,2.14
2023-05-20T17:15:41.602Z,2.15
2023-05-20T17:20:48.961Z,1.99
2023-05-20T17:25:56.226Z,2.26
2023-05-20T17:31:03.795Z,1.76
2023-05-20T17:36:11.166Z,1.97
2023-05-20T17:41:18.723Z,1.96
2023-05-20T17:46:26.116Z,1.84
2023-05-20T17:51:33.586Z,2.01
2023-05-20T17:56:40.935Z,1.88
2023-05-20T18:01:48.337Z,2.23
2023-05-20T18:06:55.565Z,2.45
2023-05-20T18:12:03.099Z,2.59
2023-05-20T18:17:10.461Z,2.26
2023-05-20T18:22:18.010Z,2.19
2023-05-20T18:27:25.418Z,2.33
2023-05-20T18:32:33.001Z,2.33
2023-05-20T18:37:40.347Z,2.54
2023-05-20T18:42:47.669Z,2.86
2023-05-20T18:47:55.065Z,2.51
2023-05-20T18:53:02.434Z,2.83
2023-05-20T18:58:09.637Z,2.42
2023-05-20T19:03:17.129Z,2.55
2023-05-20T19:08:24.419Z,2.53
2023-05-20T19:13:31.938Z,2.51
2023-05-20T19:18:39.272Z,2.42
2023-05-20T19:23:46.688Z,2.57
2023-05-20T19:28:54.064Z,2.53
2023-05-20T19:34:01.526Z,2.50
2023-05-20T19:39:08.927Z,2.45
2023-05-20T19:44:16.268Z,2.33
2023-05-20T19:49:23.505Z,2.69
2023-05-20T19:54:30.990Z,2.78
2023-05-20T19:59:38.417Z,2.62
2023-05-20T20:04:45.680Z,2.70
2023-05-20T20:09:52.882Z,3.12
2023-05-20T20:15:00.229Z,2.91
2023-05-20T20:20:07.470Z,2.78
2023-05-20T20:25:14.830Z,2.85
2023-05-20T20:30:22.188Z,2.65
2023-05-20T20:35:29.531Z,3.10
2023-05-20T20:40:36.752Z,2.90
2023-05-20T20:45:44.252Z,3.17
2023-05-20T20:50:51.590Z,3.22
2023-05-20T20:55:59.037Z,3.02
2023-05-20T21:01:06.465Z,3.02
2023-05-20T21:06:13.884Z,3.02
2023-05-20T21:11:21.334Z,2.92
2023-05-20T21:16:28.834Z,3.04
2023-05-20T21:21:38.439Z,3.16
2023-05-20T21:26:46.510Z,3.44
2023-05-20T21:31:55.778Z,3.21
2023-05-20T21:37:07.101Z,3.16
2023-05-20T21:42:07.067Z,3.12
2023-05-20T21:47:15.553Z,3.38
2023-05-20T21:52:24.320Z,3.21
2023-05-20T21:57:31.823Z,3.28
2023-05-20T22:02:39.118Z,3.53
2023-05-20T22:07:46.352Z,3.44
2023-05-20T22:12:53.573Z,3.54
2023-05-20T22:18:01.088Z,3.65
2023-05-20T22:23:08.365Z,3.44
2023-05-20T22:28:15.872Z,3.22
2023-05-20T22:33:23.173Z,3.54
2023-05-20T22:38:30.656Z,3.36
2023-05-20T22:43:37.977Z,3.22
2023-05-20T22:48:45.458Z,3.27
2023-05-20T22:53:52.842Z,3.37
2023-05-20T22:59:00.252Z,3.91
2023-05-20T23:04:07.590Z,3.23
2023-05-20T23:09:15.265Z,3.38
2023-05-20T23:14:22.626Z,3.52
2023-05-20T23:19:30.136Z,3.62
2023-05-20T23:24:37.257Z,3.82
2023-05-20T23:29:44.634Z,4.13
2023-05-20T23:34:51.815Z,3.98
2023-05-20T23:39:59.283Z,3.84
2023-05-20T23:45:06.570Z,3.89
2023-05-20T23:50:14.060Z,4.09
2023-05-20T23:55:21.239Z,3.94
